sensor_id;sensor_type;location;lat;lon;timestamp;pressure;altitude;pressure_sealevel;temperature;humidity
9289;BME280;4683;50.864;12.086;2023-02-03T00:01:10;99819.00;;;4.38;100.00
9289;BME280;4683;50.864;12.086;2023-02-03T00:03:39;99804.78;;;4.19;100.00
9289;BME280;4683;50.864;12.086;2023-02-03T00:06:11;99791.72;;;4.08;100.00
9289;BME280;4683;50.864;12.086;2023-02-03T00:08:41;99788.66;;;4.03;100.00
9289;BME280;4683;50.864;12.086;2023-02-03T00:11:10;99781.78;;;4.02;100.00
9289;BME280;4683;50.864;12.086;2023-02-03T00:13:41;99776.56;;;4.02;100.00
9289;BME280;4683;50.864;12.086;2023-02-03T00:16:12;99779.88;;;4.04;100.00
9289;BME280;4683;50.864;12.086;2023-02-03T00:18:41;99774.88;;;4.12;100.00
9289;BME280;4683;50.864;12.086;2023-02-03T00:21:13;99777.03;;;4.07;100.00
9289;BME280;4683;50.864;12.086;2023-02-03T00:23:44;99764.69;;;4.09;100.00
9289;BME280;4683;50.864;12.086;2023-02-03T00:26:16;99757.00;;;4.40;100.00
9289;BME280;4683;50.864;12.086;2023-02-03T00:28:45;99758.38;;;4.55;100.00
9289;BME280;4683;50.864;12.086;2023-02-03T00:31:19;99754.97;;;4.75;100.00
9289;BME280;4683;50.864;12.086;2023-02-03T00:33:57;99740.16;;;4.86;100.00
9289;BME280;4683;50.864;12.086;2023-02-03T00:36:28;99732.97;;;4.99;100.00
9289;BME280;4683;50.864;12.086;2023-02-03T00:38:59;99728.91;;;5.06;100.00
9289;BME280;4683;50.864;12.086;2023-02-03T00:41:31;99741.19;;;5.15;100.00
9289;BME280;4683;50.864;12.086;2023-02-03T00:44:00;99739.03;;;5.20;100.00
9289;BME280;4683;50.864;12.086;2023-02-03T00:46:31;99741.16;;;5.05;100.00
9289;BME280;4683;50.864;12.086;2023-02-03T00:49:02;99734.50;;;4.80;100.00
9289;BME280;4683;50.864;12.086;2023-02-03T00:51:34;99727.34;;;4.62;100.00
9289;BME280;4683;50.864;12.086;2023-02-03T00:54:05;99729.75;;;4.53;100.00
9289;BME280;4683;50.864;12.086;2023-02-03T00:56:34;99714.22;;;4.52;100.00
9289;BME280;4683;50.864;12.086;2023-02-03T00:59:04;99718.75;;;4.50;100.00
9289;BME280;4683;50.864;12.086;2023-02-03T01:01:36;99706.91;;;4.46;100.00
9289;BME280;4683;50.864;12.086;2023-02-03T01:04:05;99704.00;;;4.49;100.00
9289;BME280;4683;50.864;12.086;2023-02-03T01:06:38;99690.47;;;4.55;100.00
9289;BME280;4683;50.864;12.086;2023-02-03T01:09:09;99686.66;;;4.59;100.00
9289;BME280;4683;50.864;12.086;2023-02-03T01:11:40;99683.06;;;4.60;100.00
9289;BME280;4683;50.864;12.086;2023-02-03T01:14:08;99671.28;;;4.66;100.00
9289;BME280;4683;50.864;12.086;2023-02-03T01:16:39;99670.31;;;4.67;100.00
9289;BME280;4683;50.864;12.086;2023-02-03T01:19:09;99661.53;;;4.68;100.00
9289;BME280;4683;50.864;12.086;2023-02-03T01:21:39;99662.00;;;4.73;100.00
9289;BME280;4683;50.864;12.086;2023-02-03T01:24:09;99656.19;;;4.69;100.00
9289;BME280;4683;50.864;12.086;2023-02-03T01:26:40;99659.00;;;4.77;100.00
9289;BME280;4683;50.864;12.086;2023-02-03T01:29:11;99668.53;;;4.67;100.00
9289;BME280;4683;50.864;12.086;2023-02-03T01:31:44;99651.41;;;4.74;100.00
9289;BME280;4683;50.864;12.086;2023-02-03T01:34:15;99651.84;;;4.79;100.00
9289;BME280;4683;50.864;12.086;2023-02-03T01:36:46;99657.41;;;4.86;100.00
9289;BME280;4683;50.864;12.086;2023-02-03T01:43:00;99625.97;;;5.07;100.00
9289;BME280;4683;50.864;12.086;2023-02-03T01:45:29;99625.03;;;5.18;100.00
9289;BME280;4683;50.864;12.086;2023-02-03T01:48:00;99622.19;;;5.30;100.00
9289;BME280;4683;50.864;12.086;2023-02-03T01:50:33;99624.28;;;5.37;100.00
9289;BME280;4683;50.864;12.086;2023-02-03T01:53:09;99621.28;;;5.41;100.00
9289;BME280;4683;50.864;12.086;2023-02-03T01:55:43;99625.13;;;5.37;100.00
9289;BME280;4683;50.864;12.086;2023-02-03T01:58:19;99623.50;;;5.46;100.00
9289;BME280;4683;50.864;12.086;2023-02-03T02:00:52;99624.59;;;5.53;100.00
9289;BME280;4683;50.864;12.086;2023-02-03T02:03:36;99619.78;;;5.58;100.00
9289;BME280;4683;50.864;12.086;2023-02-03T02:06:26;99632.34;;;5.64;100.00
9289;BME280;4683;50.864;12.086;2023-02-03T02:08:57;99629.03;;;5.62;100.00
9289;BME280;4683;50.864;12.086;2023-02-03T02:11:28;99626.00;;;5.76;100.00
9289;BME280;4683;50.864;12.086;2023-02-03T02:13:59;99615.84;;;5.83;100.00
9289;BME280;4683;50.864;12.086;2023-02-03T02:16:40;99611.44;;;5.83;100.00
9289;BME280;4683;50.864;12.086;2023-02-03T02:19:44;99609.50;;;5.85;100.00
9289;BME280;4683;50.864;12.086;2023-02-03T02:22:23;99603.44;;;5.85;100.00
9289;BME280;4683;50.864;12.086;2023-02-03T02:25:50;99606.03;;;5.75;100.00
9289;BME280;4683;50.864;12.086;2023-02-03T02:28:52;99601.09;;;5.82;100.00
9289;BME280;4683;50.864;12.086;2023-02-03T02:34:50;99597.66;;;5.81;100.00
9289;BME280;4683;50.864;12.086;2023-02-03T02:37:34;99587.47;;;5.88;100.00
9289;BME280;4683;50.864;12.086;2023-02-03T02:40:18;99578.41;;;5.92;100.00
9289;BME280;4683;50.864;12.086;2023-02-03T02:43:03;99582.81;;;5.92;100.00
9289;BME280;4683;50.864;12.086;2023-02-03T02:45:51;99596.13;;;5.89;100.00
9289;BME280;4683;50.864;12.086;2023-02-03T02:48:35;99580.59;;;5.97;100.00
9289;BME280;4683;50.864;12.086;2023-02-03T02:51:10;99582.41;;;6.06;100.00
9289;BME280;4683;50.864;12.086;2023-02-03T02:53:45;99580.34;;;6.00;100.00
9289;BME280;4683;50.864;12.086;2023-02-03T02:56:18;99574.28;;;6.09;100.00
9289;BME280;4683;50.864;12.086;2023-02-03T02:58:49;99567.09;;;6.11;100.00
9289;BME280;4683;50.864;12.086;2023-02-03T03:01:23;99560.19;;;6.10;100.00
9289;BME280;4683;50.864;12.086;2023-02-03T03:03:53;99575.63;;;6.03;100.00
9289;BME280;4683;50.864;12.086;2023-02-03T03:06:28;99583.06;;;6.08;100.00
9289;BME280;4683;50.864;12.086;2023-02-03T03:09:04;99565.69;;;6.17;100.00
9289;BME280;4683;50.864;12.086;2023-02-03T03:11:40;99576.47;;;6.14;100.00
9289;BME280;4683;50.864;12.086;2023-02-03T03:14:11;99573.00;;;6.23;100.00
9289;BME280;4683;50.864;12.086;2023-02-03T03:16:43;99569.56;;;6.13;100.00
9289;BME280;4683;50.864;12.086;2023-02-03T03:19:20;99573.44;;;6.18;100.00
9289;BME280;4683;50.864;12.086;2023-02-03T03:21:56;99568.88;;;6.20;100.00
9289;BME280;4683;50.864;12.086;2023-02-03T03:24:31;99561.81;;;6.30;100.00
9289;BME280;4683;50.864;12.086;2023-02-03T03:27:07;99553.56;;;6.25;100.00
9289;BME280;4683;50.864;12.086;2023-02-03T03:29:43;99565.69;;;6.26;100.00
9289;BME280;4683;50.864;12.086;2023-02-03T03:32:14;99552.44;;;6.38;100.00
9289;BME280;4683;50.864;12.086;2023-02-03T03:34:45;99537.28;;;6.31;100.00
9289;BME280;4683;50.864;12.086;2023-02-03T03:37:21;99548.88;;;6.29;100.00
9289;BME280;4683;50.864;12.086;2023-02-03T03:39:55;99556.31;;;6.33;100.00
9289;BME280;4683;50.864;12.086;2023-02-03T03:42:28;99547.44;;;6.44;100.00
9289;BME280;4683;50.864;12.086;2023-02-03T03:45:05;99556.31;;;6.33;100.00
9289;BME280;4683;50.864;12.086;2023-02-03T03:47:42;99541.94;;;6.38;100.00
9289;BME280;4683;50.864;12.086;2023-02-03T03:50:20;99522.47;;;6.40;100.00
9289;BME280;4683;50.864;12.086;2023-02-03T03:52:50;99532.00;;;6.51;100.00
9289;BME280;4683;50.864;12.086;2023-02-03T03:55:20;99529.66;;;6.48;100.00
9289;BME280;4683;50.864;12.086;2023-02-03T03:57:55;99531.41;;;6.57;100.00
9289;BME280;4683;50.864;12.086;2023-02-03T04:00:31;99525.59;;;6.63;100.00
9289;BME280;4683;50.864;12.086;2023-02-03T04:03:07;99511.56;;;6.54;100.00
9289;BME280;4683;50.864;12.086;2023-02-03T04:05:40;99497.63;;;6.54;100.00
9289;BME280;4683;50.864;12.086;2023-02-03T04:08:10;99500.72;;;6.67;100.00
9289;BME280;4683;50.864;12.086;2023-02-03T04:10:42;99497.44;;;6.65;100.00
9289;BME280;4683;50.864;12.086;2023-02-03T04:13:11;99497.84;;;6.70;100.00
9289;BME280;4683;50.864;12.086;2023-02-03T04:15:41;99489.59;;;6.65;100.00
9289;BME280;4683;50.864;12.086;2023-02-03T04:18:13;99507.06;;;6.74;100.00
9289;BME280;4683;50.864;12.086;2023-02-03T04:20:45;99505.97;;;6.67;100.00
9289;BME280;4683;50.864;12.086;2023-02-03T04:23:13;99504.94;;;6.88;100.00
9289;BME280;4683;50.864;12.086;2023-02-03T04:25:42;99516.69;;;6.83;100.00
9289;BME280;4683;50.864;12.086;2023-02-03T04:28:11;99511.31;;;6.75;100.00
9289;BME280;4683;50.864;12.086;2023-02-03T04:30:40;99498.31;;;6.83;100.00
9289;BME280;4683;50.864;12.086;2023-02-03T04:33:10;99525.53;;;6.82;100.00
9289;BME280;4683;50.864;12.086;2023-02-03T04:35:41;99536.41;;;6.88;100.00
9289;BME280;4683;50.864;12.086;2023-02-03T04:38:10;99534.69;;;6.96;100.00
9289;BME280;4683;50.864;12.086;2023-02-03T04:40:39;99532.31;;;7.03;100.00
9289;BME280;4683;50.864;12.086;2023-02-03T04:43:10;99529.03;;;7.01;100.00
9289;BME280;4683;50.864;12.086;2023-02-03T04:45:40;99528.31;;;6.99;100.00
9289;BME280;4683;50.864;12.086;2023-02-03T04:48:09;99534.38;;;7.09;100.00
9289;BME280;4683;50.864;12.086;2023-02-03T04:50:39;99532.03;;;7.06;100.00
9289;BME280;4683;50.864;12.086;2023-02-03T04:53:10;99533.94;;;7.14;100.00
9289;BME280;4683;50.864;12.086;2023-02-03T04:55:39;99525.91;;;7.15;100.00
9289;BME280;4683;50.864;12.086;2023-02-03T04:58:08;99520.41;;;7.08;100.00
9289;BME280;4683;50.864;12.086;2023-02-03T05:00:36;99513.75;;;7.14;100.00
9289;BME280;4683;50.864;12.086;2023-02-03T05:03:05;99504.91;;;7.15;100.00
9289;BME280;4683;50.864;12.086;2023-02-03T05:05:33;99510.91;;;7.25;100.00
9289;BME280;4683;50.864;12.086;2023-02-03T05:08:02;99512.28;;;7.29;100.00
9289;BME280;4683;50.864;12.086;2023-02-03T05:10:36;99503.94;;;7.16;100.00
9289;BME280;4683;50.864;12.086;2023-02-03T05:13:04;99492.03;;;7.40;100.00
9289;BME280;4683;50.864;12.086;2023-02-03T05:15:33;99489.72;;;7.36;100.00
9289;BME280;4683;50.864;12.086;2023-02-03T05:18:01;99480.19;;;7.35;100.00
9289;BME280;4683;50.864;12.086;2023-02-03T05:20:29;99488.59;;;7.39;100.00
9289;BME280;4683;50.864;12.086;2023-02-03T05:22:58;99485.13;;;7.21;100.00
9289;BME280;4683;50.864;12.086;2023-02-03T05:25:27;99483.94;;;7.33;100.00
9289;BME280;4683;50.864;12.086;2023-02-03T05:27:56;99472.75;;;7.31;100.00
9289;BME280;4683;50.864;12.086;2023-02-03T05:30:25;99463.31;;;7.20;100.00
9289;BME280;4683;50.864;12.086;2023-02-03T05:32:54;99459.34;;;7.34;100.00
9289;BME280;4683;50.864;12.086;2023-02-03T05:35:26;99467.47;;;7.41;100.00
9289;BME280;4683;50.864;12.086;2023-02-03T05:37:54;99460.91;;;7.45;100.00
9289;BME280;4683;50.864;12.086;2023-02-03T05:40:23;99467.59;;;7.39;100.00
9289;BME280;4683;50.864;12.086;2023-02-03T05:43:12;99458.81;;;7.48;100.00
9289;BME280;4683;50.864;12.086;2023-02-03T05:45:41;99465.50;;;7.43;100.00
9289;BME280;4683;50.864;12.086;2023-02-03T05:48:11;99461.16;;;7.33;100.00
9289;BME280;4683;50.864;12.086;2023-02-03T05:50:39;99463.41;;;7.28;100.00
9289;BME280;4683;50.864;12.086;2023-02-03T05:53:08;99463.84;;;7.42;100.00
9289;BME280;4683;50.864;12.086;2023-02-03T05:55:38;99464.22;;;7.47;100.00
9289;BME280;4683;50.864;12.086;2023-02-03T05:58:09;99461.53;;;7.38;100.00
9289;BME280;4683;50.864;12.086;2023-02-03T06:00:38;99460.53;;;7.40;100.00
9289;BME280;4683;50.864;12.086;2023-02-03T06:03:07;99450.38;;;7.36;100.00
9289;BME280;4683;50.864;12.086;2023-02-03T06:05:36;99452.63;;;7.31;100.00
9289;BME280;4683;50.864;12.086;2023-02-03T06:08:07;99447.41;;;7.40;100.00
9289;BME280;4683;50.864;12.086;2023-02-03T06:10:35;99451.28;;;7.27;100.00
9289;BME280;4683;50.864;12.086;2023-02-03T06:13:13;99459.13;;;7.27;100.00
9289;BME280;4683;50.864;12.086;2023-02-03T06:15:42;99440.53;;;7.38;100.00
9289;BME280;4683;50.864;12.086;2023-02-03T06:18:11;99451.94;;;7.47;100.00
9289;BME280;4683;50.864;12.086;2023-02-03T06:20:39;99443.59;;;7.52;100.00
9289;BME280;4683;50.864;12.086;2023-02-03T06:23:08;99453.03;;;7.45;100.00
9289;BME280;4683;50.864;12.086;2023-02-03T06:25:36;99446.59;;;7.57;100.00
9289;BME280;4683;50.864;12.086;2023-02-03T06:28:05;99450.50;;;7.53;100.00
9289;BME280;4683;50.864;12.086;2023-02-03T06:30:35;99427.75;;;7.61;100.00
9289;BME280;4683;50.864;12.086;2023-02-03T06:33:04;99444.03;;;7.65;100.00
9289;BME280;4683;50.864;12.086;2023-02-03T06:35:33;99431.72;;;7.66;100.00
9289;BME280;4683;50.864;12.086;2023-02-03T06:38:04;99414.19;;;7.48;100.00
9289;BME280;4683;50.864;12.086;2023-02-03T06:40:33;99419.00;;;7.53;100.00
9289;BME280;4683;50.864;12.086;2023-02-03T06:43:01;99419.16;;;7.51;100.00
9289;BME280;4683;50.864;12.086;2023-02-03T06:45:29;99409.78;;;7.49;100.00
9289;BME280;4683;50.864;12.086;2023-02-03T06:47:59;99420.63;;;7.54;100.00
9289;BME280;4683;50.864;12.086;2023-02-03T06:50:28;99406.31;;;7.48;100.00
9289;BME280;4683;50.864;12.086;2023-02-03T06:52:56;99399.34;;;7.57;100.00
9289;BME280;4683;50.864;12.086;2023-02-03T06:55:25;99385.03;;;7.51;100.00
9289;BME280;4683;50.864;12.086;2023-02-03T06:57:53;99405.94;;;7.61;100.00
9289;BME280;4683;50.864;12.086;2023-02-03T07:00:23;99395.72;;;7.58;100.00
9289;BME280;4683;50.864;12.086;2023-02-03T07:02:55;99388.91;;;7.65;100.00
9289;BME280;4683;50.864;12.086;2023-02-03T07:05:25;99409.91;;;7.65;100.00
9289;BME280;4683;50.864;12.086;2023-02-03T07:07:55;99420.66;;;7.80;100.00
9289;BME280;4683;50.864;12.086;2023-02-03T07:10:23;99400.81;;;7.77;100.00
9289;BME280;4683;50.864;12.086;2023-02-03T07:12:51;99396.06;;;7.81;100.00
9289;BME280;4683;50.864;12.086;2023-02-03T07:15:20;99387.31;;;7.72;100.00
9289;BME280;4683;50.864;12.086;2023-02-03T07:17:48;99384.22;;;7.77;100.00
9289;BME280;4683;50.864;12.086;2023-02-03T07:20:21;99385.09;;;7.85;100.00
9289;BME280;4683;50.864;12.086;2023-02-03T07:22:56;99383.44;;;7.84;100.00
9289;BME280;4683;50.864;12.086;2023-02-03T07:25:25;99381.81;;;7.83;100.00
9289;BME280;4683;50.864;12.086;2023-02-03T07:27:54;99367.09;;;7.91;100.00
9289;BME280;4683;50.864;12.086;2023-02-03T07:30:23;99373.00;;;7.93;100.00
9289;BME280;4683;50.864;12.086;2023-02-03T07:32:52;99376.25;;;7.86;100.00
9289;BME280;4683;50.864;12.086;2023-02-03T07:35:21;99368.38;;;7.86;100.00
9289;BME280;4683;50.864;12.086;2023-02-03T07:37:49;99347.72;;;7.92;100.00
9289;BME280;4683;50.864;12.086;2023-02-03T07:40:21;99343.13;;;7.94;100.00
9289;BME280;4683;50.864;12.086;2023-02-03T07:42:49;99352.50;;;7.96;100.00
9289;BME280;4683;50.864;12.086;2023-02-03T07:45:17;99351.16;;;7.92;100.00
9289;BME280;4683;50.864;12.086;2023-02-03T07:47:48;99358.88;;;7.94;100.00
9289;BME280;4683;50.864;12.086;2023-02-03T07:50:16;99347.53;;;7.93;100.00
9289;BME280;4683;50.864;12.086;2023-02-03T07:52:45;99354.25;;;7.87;100.00
9289;BME280;4683;50.864;12.086;2023-02-03T07:55:13;99359.69;;;7.94;100.00
9289;BME280;4683;50.864;12.086;2023-02-03T07:57:44;99361.97;;;7.89;100.00
9289;BME280;4683;50.864;12.086;2023-02-03T08:00:15;99349.03;;;7.96;100.00
9289;BME280;4683;50.864;12.086;2023-02-03T08:02:44;99356.59;;;7.99;100.00
9289;BME280;4683;50.864;12.086;2023-02-03T08:05:13;99366.03;;;8.09;100.00
9289;BME280;4683;50.864;12.086;2023-02-03T08:07:42;99351.56;;;8.05;100.00
9289;BME280;4683;50.864;12.086;2023-02-03T08:10:12;99353.41;;;8.13;100.00
9289;BME280;4683;50.864;12.086;2023-02-03T08:12:44;99345.81;;;8.10;100.00
9289;BME280;4683;50.864;12.086;2023-02-03T08:15:14;99334.16;;;8.12;100.00
9289;BME280;4683;50.864;12.086;2023-02-03T08:17:44;99333.34;;;8.12;100.00
9289;BME280;4683;50.864;12.086;2023-02-03T08:20:12;99333.00;;;8.07;100.00
9289;BME280;4683;50.864;12.086;2023-02-03T08:22:41;99327.88;;;7.97;100.00
9289;BME280;4683;50.864;12.086;2023-02-03T08:25:10;99324.84;;;8.18;100.00
9289;BME280;4683;50.864;12.086;2023-02-03T08:27:39;99330.41;;;8.15;100.00
9289;BME280;4683;50.864;12.086;2023-02-03T08:30:12;99323.19;;;8.17;100.00
9289;BME280;4683;50.864;12.086;2023-02-03T08:32:41;99319.28;;;8.29;100.00
9289;BME280;4683;50.864;12.086;2023-02-03T08:35:09;99309.25;;;8.25;100.00
9289;BME280;4683;50.864;12.086;2023-02-03T08:37:38;99298.59;;;8.34;100.00
9289;BME280;4683;50.864;12.086;2023-02-03T08:40:09;99297.78;;;8.34;100.00
9289;BME280;4683;50.864;12.086;2023-02-03T08:42:38;99286.75;;;8.30;100.00
9289;BME280;4683;50.864;12.086;2023-02-03T08:45:09;99284.03;;;8.40;100.00
9289;BME280;4683;50.864;12.086;2023-02-03T08:47:37;99276.16;;;8.48;100.00
9289;BME280;4683;50.864;12.086;2023-02-03T08:50:08;99259.41;;;8.41;100.00
9289;BME280;4683;50.864;12.086;2023-02-03T08:52:37;99280.09;;;8.44;100.00
9289;BME280;4683;50.864;12.086;2023-02-03T08:55:06;99278.63;;;8.42;100.00
9289;BME280;4683;50.864;12.086;2023-02-03T08:57:35;99274.66;;;8.37;100.00
9289;BME280;4683;50.864;12.086;2023-02-03T09:00:09;99288.31;;;8.41;100.00
9289;BME280;4683;50.864;12.086;2023-02-03T09:02:37;99285.53;;;8.43;100.00
9289;BME280;4683;50.864;12.086;2023-02-03T09:05:06;99298.69;;;8.51;100.00
9289;BME280;4683;50.864;12.086;2023-02-03T09:07:35;99283.88;;;8.58;100.00
9289;BME280;4683;50.864;12.086;2023-02-03T09:10:04;99291.63;;;8.59;100.00
9289;BME280;4683;50.864;12.086;2023-02-03T09:12:32;99263.19;;;8.55;100.00
9289;BME280;4683;50.864;12.086;2023-02-03T09:15:01;99264.19;;;8.62;100.00
9289;BME280;4683;50.864;12.086;2023-02-03T09:17:31;99274.22;;;8.67;100.00
9289;BME280;4683;50.864;12.086;2023-02-03T09:19:59;99269.13;;;8.65;100.00
9289;BME280;4683;50.864;12.086;2023-02-03T09:22:28;99262.56;;;8.69;100.00
9289;BME280;4683;50.864;12.086;2023-02-03T09:24:56;99268.94;;;8.67;100.00
9289;BME280;4683;50.864;12.086;2023-02-03T09:27:24;99238.53;;;8.80;100.00
9289;BME280;4683;50.864;12.086;2023-02-03T09:29:54;99245.13;;;8.76;100.00
9289;BME280;4683;50.864;12.086;2023-02-03T09:32:24;99233.28;;;8.80;100.00
9289;BME280;4683;50.864;12.086;2023-02-03T09:34:53;99236.25;;;8.77;100.00
9289;BME280;4683;50.864;12.086;2023-02-03T09:37:23;99232.31;;;8.65;100.00
9289;BME280;4683;50.864;12.086;2023-02-03T09:39:51;99249.56;;;8.76;100.00
9289;BME280;4683;50.864;12.086;2023-02-03T09:42:54;99233.94;;;8.66;100.00
9289;BME280;4683;50.864;12.086;2023-02-03T09:45:30;99228.19;;;8.79;100.00
9289;BME280;4683;50.864;12.086;2023-02-03T09:48:04;99229.19;;;8.78;100.00
9289;BME280;4683;50.864;12.086;2023-02-03T09:50:36;99225.88;;;8.76;100.00
9289;BME280;4683;50.864;12.086;2023-02-03T09:53:14;99210.78;;;8.78;100.00
9289;BME280;4683;50.864;12.086;2023-02-03T09:55:46;99215.53;;;8.82;100.00
9289;BME280;4683;50.864;12.086;2023-02-03T09:58:18;99214.41;;;8.77;100.00
9289;BME280;4683;50.864;12.086;2023-02-03T10:00:51;99218.31;;;8.89;100.00
9289;BME280;4683;50.864;12.086;2023-02-03T10:03:27;99218.19;;;8.82;100.00
9289;BME280;4683;50.864;12.086;2023-02-03T10:06:13;99217.69;;;8.79;100.00
9289;BME280;4683;50.864;12.086;2023-02-03T10:09:08;99204.03;;;8.83;100.00
9289;BME280;4683;50.864;12.086;2023-02-03T10:12:37;99207.97;;;8.87;100.00
9289;BME280;4683;50.864;12.086;2023-02-03T10:15:34;99208.16;;;8.86;100.00
9289;BME280;4683;50.864;12.086;2023-02-03T10:18:11;99200.75;;;8.81;100.00
9289;BME280;4683;50.864;12.086;2023-02-03T10:20:44;99209.59;;;8.97;100.00
9289;BME280;4683;50.864;12.086;2023-02-03T10:23:19;99200.59;;;8.91;100.00
9289;BME280;4683;50.864;12.086;2023-02-03T10:25:51;99229.84;;;8.96;100.00
9289;BME280;4683;50.864;12.086;2023-02-03T10:28:23;99212.56;;;9.02;100.00
9289;BME280;4683;50.864;12.086;2023-02-03T10:30:56;99207.97;;;8.96;100.00
9289;BME280;4683;50.864;12.086;2023-02-03T10:33:27;99209.94;;;8.85;100.00
9289;BME280;4683;50.864;12.086;2023-02-03T10:36:06;99203.34;;;8.89;100.00
9289;BME280;4683;50.864;12.086;2023-02-03T10:38:52;99205.81;;;9.07;100.00
9289;BME280;4683;50.864;12.086;2023-02-03T10:41:24;99194.13;;;9.02;100.00
9289;BME280;4683;50.864;12.086;2023-02-03T10:43:55;99172.09;;;9.03;100.00
9289;BME280;4683;50.864;12.086;2023-02-03T10:46:28;99170.47;;;8.94;100.00
9289;BME280;4683;50.864;12.086;2023-02-03T10:48:58;99156.00;;;8.89;100.00
9289;BME280;4683;50.864;12.086;2023-02-03T10:51:28;99141.78;;;8.68;100.00
9289;BME280;4683;50.864;12.086;2023-02-03T10:54:00;99135.00;;;8.73;100.00
9289;BME280;4683;50.864;12.086;2023-02-03T10:56:30;99126.00;;;8.68;100.00
9289;BME280;4683;50.864;12.086;2023-02-03T10:59:02;99106.09;;;8.57;100.00
9289;BME280;4683;50.864;12.086;2023-02-03T11:01:41;99097.41;;;8.48;100.00
9289;BME280;4683;50.864;12.086;2023-02-03T11:04:24;99094.63;;;8.42;100.00
9289;BME280;4683;50.864;12.086;2023-02-03T11:06:55;99086.38;;;8.45;100.00
9289;BME280;4683;50.864;12.086;2023-02-03T11:09:38;99069.31;;;8.32;100.00
9289;BME280;4683;50.864;12.086;2023-02-03T11:12:12;99053.88;;;8.46;100.00
9289;BME280;4683;50.864;12.086;2023-02-03T11:14:43;99061.06;;;8.35;100.00
9289;BME280;4683;50.864;12.086;2023-02-03T11:17:16;99069.34;;;8.41;100.00
9289;BME280;4683;50.864;12.086;2023-02-03T11:19:48;99061.09;;;8.44;100.00
9289;BME280;4683;50.864;12.086;2023-02-03T11:22:27;99080.16;;;8.46;100.00
9289;BME280;4683;50.864;12.086;2023-02-03T11:24:59;99075.53;;;8.56;100.00
9289;BME280;4683;50.864;12.086;2023-02-03T11:27:30;99104.47;;;8.64;100.00
9289;BME280;4683;50.864;12.086;2023-02-03T11:30:13;99123.50;;;8.58;100.00
9289;BME280;4683;50.864;12.086;2023-02-03T11:32:43;99143.56;;;8.67;100.00
9289;BME280;4683;50.864;12.086;2023-02-03T11:35:16;99149.16;;;8.72;100.00
9289;BME280;4683;50.864;12.086;2023-02-03T11:37:47;99138.28;;;8.75;100.00
9289;BME280;4683;50.864;12.086;2023-02-03T11:40:28;99137.97;;;8.70;100.00
9289;BME280;4683;50.864;12.086;2023-02-03T11:43:03;99132.38;;;8.81;100.00
9289;BME280;4683;50.864;12.086;2023-02-03T11:45:38;99127.75;;;8.92;100.00
9289;BME280;4683;50.864;12.086;2023-02-03T11:48:23;99123.31;;;8.92;100.00
9289;BME280;4683;50.864;12.086;2023-02-03T11:51:02;99127.38;;;8.95;100.00
9289;BME280;4683;50.864;12.086;2023-02-03T11:54:05;99121.31;;;8.94;100.00
9289;BME280;4683;50.864;12.086;2023-02-03T11:57:06;99122.63;;;8.90;100.00
9289;BME280;4683;50.864;12.086;2023-02-03T12:00:00;99109.03;;;8.86;100.00
9289;BME280;4683;50.864;12.086;2023-02-03T12:03:04;99103.94;;;8.77;100.00
9289;BME280;4683;50.864;12.086;2023-02-03T12:05:52;99096.91;;;8.45;100.00
9289;BME280;4683;50.864;12.086;2023-02-03T12:08:35;99073.75;;;8.16;100.00
9289;BME280;4683;50.864;12.086;2023-02-03T12:11:16;99070.94;;;7.84;100.00
9289;BME280;4683;50.864;12.086;2023-02-03T12:14:06;99066.66;;;7.75;100.00
9289;BME280;4683;50.864;12.086;2023-02-03T12:17:02;99062.72;;;7.71;100.00
9289;BME280;4683;50.864;12.086;2023-02-03T12:19:51;99058.66;;;7.77;100.00
9289;BME280;4683;50.864;12.086;2023-02-03T12:22:28;99074.88;;;7.72;100.00
9289;BME280;4683;50.864;12.086;2023-02-03T12:25:06;99064.22;;;7.74;100.00
9289;BME280;4683;50.864;12.086;2023-02-03T12:27:52;99056.97;;;7.76;100.00
9289;BME280;4683;50.864;12.086;2023-02-03T12:30:31;99057.31;;;7.73;100.00
9289;BME280;4683;50.864;12.086;2023-02-03T12:33:09;99055.00;;;7.70;100.00
9289;BME280;4683;50.864;12.086;2023-02-03T12:35:47;99060.91;;;7.72;100.00
9289;BME280;4683;50.864;12.086;2023-02-03T12:38:24;99058.97;;;7.74;100.00
9289;BME280;4683;50.864;12.086;2023-02-03T12:40:59;99059.13;;;7.80;100.00
9289;BME280;4683;50.864;12.086;2023-02-03T12:43:34;99071.91;;;7.75;100.00
9289;BME280;4683;50.864;12.086;2023-02-03T12:46:12;99058.16;;;7.73;100.00
9289;BME280;4683;50.864;12.086;2023-02-03T12:48:50;99060.78;;;7.81;100.00
9289;BME280;4683;50.864;12.086;2023-02-03T12:51:32;99046.66;;;7.82;100.00
9289;BME280;4683;50.864;12.086;2023-02-03T12:56:54;99027.97;;;7.77;100.00
9289;BME280;4683;50.864;12.086;2023-02-03T12:59:28;99043.88;;;7.92;100.00
9289;BME280;4683;50.864;12.086;2023-02-03T13:02:03;99038.94;;;8.13;100.00
9289;BME280;4683;50.864;12.086;2023-02-03T13:04:42;99062.41;;;8.48;100.00
9289;BME280;4683;50.864;12.086;2023-02-03T13:07:18;99058.13;;;8.63;100.00
9289;BME280;4683;50.864;12.086;2023-02-03T13:09:55;99061.56;;;8.63;100.00
9289;BME280;4683;50.864;12.086;2023-02-03T13:12:29;99044.97;;;8.63;100.00
9289;BME280;4683;50.864;12.086;2023-02-03T13:15:05;99036.72;;;8.66;100.00
9289;BME280;4683;50.864;12.086;2023-02-03T13:17:49;99021.94;;;8.65;100.00
9289;BME280;4683;50.864;12.086;2023-02-03T13:20:22;99025.59;;;8.56;100.00
9289;BME280;4683;50.864;12.086;2023-02-03T13:22:51;99027.53;;;8.62;100.00
9289;BME280;4683;50.864;12.086;2023-02-03T13:25:48;99026.22;;;8.58;100.00
9289;BME280;4683;50.864;12.086;2023-02-03T13:28:39;99010.03;;;8.38;100.00
9289;BME280;4683;50.864;12.086;2023-02-03T13:31:24;99038.44;;;8.51;100.00
9289;BME280;4683;50.864;12.086;2023-02-03T13:34:32;99070.31;;;8.39;100.00
9289;BME280;4683;50.864;12.086;2023-02-03T13:40:46;99052.56;;;8.42;100.00
9289;BME280;4683;50.864;12.086;2023-02-03T13:43:33;99046.81;;;8.30;100.00
9289;BME280;4683;50.864;12.086;2023-02-03T13:46:27;99052.72;;;8.24;100.00
9289;BME280;4683;50.864;12.086;2023-02-03T13:49:15;99073.09;;;8.38;100.00
9289;BME280;4683;50.864;12.086;2023-02-03T13:51:52;99104.78;;;8.28;100.00
9289;BME280;4683;50.864;12.086;2023-02-03T13:54:33;99107.09;;;8.56;100.00
9289;BME280;4683;50.864;12.086;2023-02-03T13:57:21;99153.09;;;8.52;100.00
9289;BME280;4683;50.864;12.086;2023-02-03T13:59:53;99165.25;;;8.77;100.00